KOMK/OMK METAR and TAF weather

Enter ICAO airport designator
Station Type Date Time Source
KOMK METAR 2020/01/23 08:53 UTC NOAA

KOMK 230853Z AUTO 00000KT 3/4SM BR VV004 01/M02 A3010 RMK AO2 SLP207 I3000 T00061017 58004


Station Type Date Time Source
KOMK Decoded METAR 2020/01/23 08:53 UTC NOAA

OMAK AIRPORT, WA, United States (KOMK) 48-28N 119-31W 395M
Jan 23, 2020 - 03:53 AM EST / 2020.01.23 0853 UTC
Wind: Calm:0
Visibility: 3/4 mile(s):0
Sky conditions: obscured
Weather: mist
Temperature: 33.1 F (0.6 C)
Dew Point: 28.9 F (-1.7 C)
Relative Humidity: 84%
Pressure (altimeter): 30.1 in. Hg (1019 hPa)
Pressure tendency: 0.01 inches (0.4 hPa) lower than three hours ago
ob: KOMK 230853Z AUTO 00000KT 3/4SM BR VV004 01/M02 A3010 RMK AO2 SLP207 I3000 T00061017 58004
cycle: 9

Station Type Date Time Source
KOMK TAF UTC NOAA

Error!

Example: see airport list